AirNav   Duncan Aviation - Near you to keep you flying
 
 1176 users online  

OK18 Grand Isle Airport
Adair, Oklahoma, USA

GOING TO ADAIR?


FAA INFORMATION EFFECTIVE 11 AUGUST 2022

Location

FAA Identifier: OK18
Lat/Long: 36-25-24.3000N 095-10-15.8400W
36-25.405000N 095-10.264000W
36.4234167,-95.1710667
(estimated)
Elevation: 636 ft. / 194 m (estimated)
From city: 5 miles E of ADAIR, OK
Time zone: UTC -5 (UTC -6 during Standard Time)
Zip code: 74330

Airport Operations

Airport use: Private use. Permission required prior to landing
Activation date: 12/2005
Control tower: no
ARTCC: KANSAS CITY CENTER
FSS: MC ALESTER FLIGHT SERVICE STATION
Attendance: UNATNDD
Wind indicator: yes
Segmented circle: no

Airport Communications

WX AWOS-3PT at H71 (14 nm SW): 120.1 (918-476-0517)
WX AWOS-3P at GCM (17 nm SW): 119.925 (918-343-0184)
  • 122.75

Nearby radio navigation aids

VOR radial/distance  VOR name  Freq  Var
TULr057/32.8TULSA VORTAC114.4008E

 
NDB name  Hdg/Dist  Freq  Var  ID
SILOAM SPRINGS289/35.928404ESLG ... .-.. --.

Airport Services

Runway Information

Runway 17/35

Dimensions: 2200 x 50 ft. / 671 x 15 m
Surface: turf
RY SFC ROUGH.
RUNWAY 17  RUNWAY 35
Traffic pattern: leftright
Obstructions: treesnone

Airport Ownership and Management from official FAA records

Ownership: Privately-owned
Owner: OK18 LLC
8212 N 440 RD
BIG CABIN, OK 74332
Phone 214-708-7595
Manager: CLAYTON MCMARTIN
8212 N 440 RD
BIG CABIN, OK 74332
Phone 214-708-7595

Airport Operational Statistics

Aircraft based on the field: 2
Single engine airplanes: 2
    

Additional Remarks

FOR CD CTC KANSAS CITY ARTCC AT 913-254-8508.

Instrument Procedures

There are no published instrument procedures at OK18.

Some nearby airports with instrument procedures:

1K8 - South Grand Lake Regional Airport (11 nm NE)
H71 - Mid-America Industrial Airport (14 nm SW)
KGCM - Claremore Regional Airport (17 nm SW)
KGMJ - Grove Regional Airport (24 nm NE)
H68 - Hefner-Easley Airport (29 nm S)
 
Loc | Ops | Rwys | IFR | FBO | Links
Com | Nav | Svcs | Stats | Notes
Area around OK18 (Grand Isle Airport)
 
Road maps at: MapQuest Bing Google
 
Aerial photo
WARNING: Photo may not be current or correct
Aerial photo of OK18 (Grand Isle Airport)
Do you have a better or more recent aerial photo of Grand Isle Airport that you would like to share? If so, please send us your photo.

 
Sectional chart

 
Airport distance calculator
Flying to Grand Isle Airport? Find the distance to fly.

From to OK18

Sunrise and sunset
Times for 16-Aug-2022
 Local
(UTC-5)
 Zulu
(UTC)
Morning civil twilight06:1311:13
Sunrise06:4011:40
Sunset20:1001:10
Evening civil twilight20:3701:37

Current date and time
Zulu (UTC)  17-Aug-2022 01:55:11
Local (UTC-5)  16-Aug-2022 20:55:11
 
METAR
KH71 
14nm SW 
170135Z AUTO 36020KT 10SM -RA 29/23 A2983 RMK AO2
KGCM 
17nm SW 
170135Z AUTO 04011G17KT 10SM SCT110 27/20 A2986 RMK AO2
KGMJ 
24nm NE 
170135Z AUTO 36007KT BKN095 27/20 A2992 RMK AO2 LTG DSNT W THRU N PWINO
TAF
KTUL 
37nm W 
161722Z 1618/1718 26010KT P6SM FEW070 SCT250 FM162300 36010KT P6SM VCTS BKN040CB TEMPO 1623/1703 3SM -TSRA BKN025CB FM170300 03010KT P6SM BKN050 TEMPO 1706/1710 5SM -TSRA BKN025CB FM171000 03007KT P6SM VCTS BKN015CB TEMPO 1710/1714 5SM -TSRA BKN007CB FM171500 02009KT P6SM VCSH BKN008 OVC015
KXNA 
43nm E 
161722Z 1618/1718 23006KT P6SM SCT060 BKN200 FM162100 13007KT P6SM VCTS BKN050CB FM170000 09008KT P6SM VCTS BKN050CB TEMPO 1701/1705 3SM -TSRA BKN025CB FM170700 10005KT P6SM VCTS BKN015CB TEMPO 1708/1712 3SM -TSRA BKN007CB FM171200 11005KT 4SM -SHRA BR OVC006 PROB30 1712/1716 2SM TSRA BR OVC010CB
KRVS 
45nm SW 
161722Z 1618/1718 25010KT P6SM FEW070 SCT250 FM162300 36010KT P6SM VCTS BKN040CB TEMPO 1623/1703 3SM -TSRA BKN025CB FM170300 03010KT P6SM BKN050 TEMPO 1706/1710 5SM -TSRA BKN025CB FM171000 03007KT P6SM VCTS BKN015CB TEMPO 1710/1714 5SM -TSRA BKN007CB FM171500 02009KT P6SM VCSH BKN008 OVC015
KBVO 
46nm NW 
162241Z 1623/1718 02011KT 3SM -TSRA BKN050CB BKN100 TEMPO 1623/1624 VRB15G25KT 1SM TSRA BKN040CB FM170100 02010KT P6SM BKN035 TEMPO 1704/1708 5SM -TSRA BKN025CB FM170800 03007KT P6SM VCTS BKN015CB TEMPO 1708/1712 5SM -TSRA BKN007CB FM171400 03009KT P6SM VCSH BKN009 OVC015
NOTAMs
Click for the latest NOTAMs
NOTAMs are issued by the DoD/FAA and will open in a separate window not controlled by AirNav.

 

 
 

Would you like to see your business listed on this page?

 If your business provides an interesting product or service to pilots, flight crews, aircraft, or users of the Grand Isle Airport, you should consider listing it here.  To start the listing process, click on the button below
 
Add a business
 

Other Pages about Grand Isle Airport

Update a link
 
Copyright © AirNav, LLC. All rights reserved. Privacy Policy  Contact